Time;durP1;ratioP1;P1;durP2;ratioP2;P2;SDS_P1;SDS_P2;PMS_P1;PMS_P2;Temp;Humidity;BMP_temperature;BMP_pressure;BME280_temperature;BME280_humidity;BME280_pressure;Samples;Min_cycle;Max_cycle;Signal;HPM_P1;HPM_P2
2021/12/07 00:01:40;;;;;;;;;0.00;0.00;;;;;6.54;100.00;100940.34;4900812;29;45416;-84
2021/12/07 00:04:06;;;;;;;;;0.75;0.75;;;;;6.55;100.00;100935.94;4883629;28;45085;-85
2021/12/07 00:06:32;;;;;;;;;10.20;3.20;;;;;6.58;100.00;100952.50;4865822;29;44856;-84
2021/12/07 00:08:57;;;;;;;;;1.00;1.00;;;;;6.59;100.00;100966.53;4883461;29;45221;-84
2021/12/07 00:11:26;;;;;;;;;8.75;3.00;;;;;6.61;100.00;100959.38;4883477;29;45655;-84
2021/12/07 00:13:52;;;;;;;;;4.00;2.80;;;;;6.62;100.00;100945.25;4881498;29;45337;-84
2021/12/07 00:16:19;;;;;;;;;5.00;1.75;;;;;6.59;100.00;100948.91;4881646;29;45318;-83
2021/12/07 00:18:45;;;;;;;;;2.25;2.25;;;;;6.60;100.00;100960.31;4882255;29;44923;-84
2021/12/07 00:21:14;;;;;;;;;7.50;4.50;;;;;6.55;100.00;100949.13;4882671;29;45163;-84
2021/12/07 00:23:40;;;;;;;;;3.60;2.00;;;;;6.57;100.00;100952.53;4866424;29;44701;-89
2021/12/07 00:26:05;;;;;;;;;5.00;2.75;;;;;6.54;100.00;100939.50;4890993;29;44664;-89
2021/12/07 00:28:31;;;;;;;;;7.25;3.00;;;;;6.54;100.00;100945.63;4891000;29;44909;-88
2021/12/07 00:31:07;;;;;;;;;5.00;0.00;;;;;6.55;100.00;100946.50;4889809;29;45082;-88
2021/12/07 00:33:41;;;;;;;;;4.20;2.80;;;;;6.56;100.00;100954.31;4883423;29;44796;-88
2021/12/07 00:36:06;;;;;;;;;4.40;2.40;;;;;6.58;100.00;100946.34;4875805;29;45281;-88
2021/12/07 00:38:32;;;;;;;;;4.00;1.00;;;;;6.53;100.00;100949.22;4890876;29;44737;-88
2021/12/07 00:40:59;;;;;;;;;1.50;1.00;;;;;6.58;100.00;100955.13;4889629;29;45716;-88
2021/12/07 00:43:26;;;;;;;;;8.60;5.00;;;;;6.57;100.00;100958.66;4892741;29;44838;-89
2021/12/07 00:45:54;;;;;;;;;4.00;0.75;;;;;6.54;100.00;100948.28;4892026;29;44798;-88
2021/12/07 00:48:21;;;;;;;;;2.75;1.00;;;;;6.53;100.00;100957.13;4893862;29;45464;-84
2021/12/07 00:50:48;;;;;;;;;3.25;3.00;;;;;6.55;100.00;100957.91;4892233;29;45024;-83
2021/12/07 00:53:15;;;;;;;;;1.40;1.00;;;;;6.56;100.00;100951.69;4892052;29;45321;-84
2021/12/07 00:55:48;;;;;;;;;2.60;1.00;;;;;6.55;100.00;100949.97;4885694;29;45336;-89
2021/12/07 00:58:21;;;;;;;;;4.50;2.75;;;;;6.55;100.00;100955.25;4868552;29;44933;-89
2021/12/07 01:00:50;;;;;;;;;2.75;1.00;;;;;6.59;100.00;100953.34;4884467;29;45443;-88
2021/12/07 01:03:16;;;;;;;;;5.00;1.80;;;;;6.59;100.00;100962.09;4867166;29;44852;-89
2021/12/07 01:05:48;;;;;;;;;1.75;1.75;;;;;6.56;100.00;100964.03;4884061;29;45201;-89
2021/12/07 01:08:23;;;;;;;;;4.75;1.75;;;;;6.53;100.00;100951.84;4883869;29;44738;-88
2021/12/07 01:24:44;;;;;;;;;0.40;0.00;;;;;6.44;100.00;100954.91;4887477;29;45312;-88
2021/12/07 01:27:18;;;;;;;;;4.20;0.00;;;;;6.42;100.00;100957.59;4873782;29;44770;-88
2021/12/07 01:29:47;;;;;;;;;2.00;1.00;;;;;6.38;100.00;100948.13;4874286;29;44739;-90
2021/12/07 02:01:54;;;;;;;;;4.50;0.75;;;;;5.85;100.00;100983.00;4892159;29;44731;-88
2021/12/07 02:04:20;;;;;;;;;2.00;0.75;;;;;5.85;100.00;100985.66;4891437;29;45247;-88
2021/12/07 02:06:46;;;;;;;;;2.00;1.00;;;;;5.85;100.00;100982.13;4889450;29;45362;-88
2021/12/07 02:09:12;;;;;;;;;0.50;0.50;;;;;5.91;100.00;100988.03;4891473;29;44809;-88
2021/12/07 02:11:50;;;;;;;;;0.00;0.00;;;;;5.89;100.00;100989.84;4889392;29;44745;-88
2021/12/07 02:14:18;;;;;;;;;1.00;1.00;;;;;5.88;100.00;100984.66;4892309;29;45169;-88
2021/12/07 02:16:56;;;;;;;;;1.00;1.00;;;;;5.89;100.00;100997.75;4879035;29;44711;-88
2021/12/07 02:19:22;;;;;;;;;0.00;0.00;;;;;5.85;100.00;100985.66;4896050;29;45245;-87
2021/12/07 02:21:48;;;;;;;;;0.25;0.25;;;;;5.88;100.00;100993.41;4896208;29;45238;-88
2021/12/07 02:24:14;;;;;;;;;0.75;0.75;;;;;5.85;100.00;100997.94;4896028;29;45641;-89
2021/12/07 02:26:39;;;;;;;;;0.00;0.00;;;;;5.85;100.00;101001.47;4891263;29;44891;-88
2021/12/07 02:29:07;;;;;;;;;1.00;0.00;;;;;5.80;100.00;101008.72;4889871;29;44885;-87
2021/12/07 02:31:33;;;;;;;;;2.00;0.75;;;;;5.76;100.00;101007.13;4890631;29;44758;-89
2021/12/07 02:33:59;;;;;;;;;2.40;1.00;;;;;5.74;100.00;101011.59;4892149;29;45095;-87
2021/12/07 02:36:25;;;;;;;;;5.20;1.00;;;;;5.73;100.00;101015.16;4892161;29;45517;-87
2021/12/07 02:38:51;;;;;;;;;1.25;0.50;;;;;5.67;100.00;101004.88;4891797;29;45563;-88
2021/12/07 02:41:17;;;;;;;;;3.00;0.00;;;;;5.66;100.00;101008.44;4888860;29;44820;-87
2021/12/07 02:43:43;;;;;;;;;2.25;0.00;;;;;5.65;100.00;101015.47;4885742;29;45162;-87
2021/12/07 02:46:10;;;;;;;;;2.40;1.00;;;;;5.63;100.00;101005.94;4884272;29;45467;-87
2021/12/07 02:48:35;;;;;;;;;1.00;1.00;;;;;5.62;100.00;100999.81;4868185;29;45396;-87
2021/12/07 02:51:02;;;;;;;;;1.75;0.50;;;;;5.59;100.00;101007.81;4884184;29;45341;-88
2021/12/07 02:53:29;;;;;;;;;1.75;0.00;;;;;5.55;100.00;101014.16;4882951;29;45286;-87
2021/12/07 02:55:56;;;;;;;;;3.20;1.00;;;;;5.51;100.00;101015.22;4886859;29;45201;-89
2021/12/07 02:58:23;;;;;;;;;3.00;1.25;;;;;5.48;100.00;101006.56;4896734;29;44681;-87
2021/12/07 03:01:00;;;;;;;;;2.00;1.00;;;;;5.45;100.00;101011.97;4894326;29;44793;-88
2021/12/07 03:03:28;;;;;;;;;3.00;1.00;;;;;5.33;100.00;100995.75;4885989;29;46756;-88
2021/12/07 03:06:08;;;;;;;;;1.60;1.00;;;;;5.32;100.00;101014.25;4910228;29;45404;-87
2021/12/07 03:27:49;;;;;;;;;1.00;1.00;;;;;4.96;100.00;101035.00;4902637;29;44707;-88
2021/12/07 03:30:15;;;;;;;;;2.25;1.00;;;;;4.95;100.00;101049.94;4903233;29;44686;-87
2021/12/07 03:32:40;;;;;;;;;3.00;2.00;;;;;4.94;100.00;101045.59;4903335;29;44807;-88
2021/12/07 03:35:06;;;;;;;;;1.00;1.00;;;;;4.94;100.00;101050.88;4903386;29;45115;-88
2021/12/07 03:37:31;;;;;;;;;1.00;1.00;;;;;4.95;100.00;101055.22;4888570;29;44646;-88
2021/12/07 03:39:57;;;;;;;;;6.50;2.00;;;;;4.98;100.00;101055.09;4907029;29;44808;-88
2021/12/07 03:42:22;;;;;;;;;2.00;2.00;;;;;4.95;100.00;101044.69;4906716;29;44797;-88
2021/12/07 03:44:47;;;;;;;;;3.75;2.25;;;;;5.02;100.00;101051.41;4903428;29;44981;-87
2021/12/07 03:47:14;;;;;;;;;2.25;1.00;;;;;5.08;100.00;101039.81;4909511;29;45423;-89
2021/12/07 03:49:39;;;;;;;;;3.50;1.25;;;;;5.08;100.00;101031.91;4910472;29;44745;-87
2021/12/07 03:52:05;;;;;;;;;2.00;1.00;;;;;5.08;100.00;101021.38;4911487;29;44778;-88
2021/12/07 03:54:31;;;;;;;;;3.25;2.00;;;;;5.00;100.00;101026.94;4906888;29;45034;-88
2021/12/07 03:56:56;;;;;;;;;5.00;2.00;;;;;4.96;100.00;101046.38;4904763;29;44713;-89
2021/12/07 03:59:22;;;;;;;;;2.50;2.00;;;;;5.00;100.00;101042.72;4908430;29;44699;-87
2021/12/07 04:01:47;;;;;;;;;1.00;1.00;;;;;4.98;100.00;101043.69;4890982;29;44857;-85
2021/12/07 04:04:13;;;;;;;;;2.75;1.00;;;;;4.96;100.00;101037.63;4909320;29;45358;-87
2021/12/07 04:06:38;;;;;;;;;2.50;1.25;;;;;4.95;100.00;101028.88;4912462;29;44694;-86
2021/12/07 04:09:04;;;;;;;;;8.00;2.00;;;;;4.92;100.00;101014.97;4906448;29;44691;-88
2021/12/07 04:11:30;;;;;;;;;3.00;1.00;;;;;4.86;100.00;101022.19;4885555;29;44951;-88
2021/12/07 04:13:55;;;;;;;;;3.75;1.75;;;;;4.79;100.00;101014.59;4901120;29;45505;-88
2021/12/07 04:16:21;;;;;;;;;2.50;2.00;;;;;4.75;100.00;101016.50;4902108;29;44810;-88
2021/12/07 04:18:47;;;;;;;;;2.00;2.00;;;;;4.64;100.00;101029.19;4902398;29;44781;-87
2021/12/07 04:21:13;;;;;;;;;1.00;0.25;;;;;4.60;100.00;101038.97;4901725;29;44908;-87
2021/12/07 04:23:38;;;;;;;;;0.50;0.25;;;;;4.57;100.00;101049.59;4901348;29;45407;-89
2021/12/07 04:26:07;;;;;;;;;3.00;3.00;;;;;4.53;100.00;101045.38;4901293;29;44792;-89
2021/12/07 04:28:33;;;;;;;;;4.00;1.00;;;;;4.55;100.00;101032.19;4884471;29;45255;-87
2021/12/07 04:30:58;;;;;;;;;4.50;2.00;;;;;4.52;100.00;101027.03;4901597;29;45375;-87
2021/12/07 04:33:25;;;;;;;;;3.75;1.25;;;;;4.47;100.00;101036.84;4904120;29;45070;-89
2021/12/07 04:35:51;;;;;;;;;4.25;3.00;;;;;4.46;100.00;101038.63;4904891;29;45219;-88
2021/12/07 04:38:17;;;;;;;;;6.50;2.00;;;;;4.44;100.00;101039.59;4903503;29;45200;-87
2021/12/07 04:40:43;;;;;;;;;2.50;1.00;;;;;4.37;100.00;101037.19;4902776;29;44900;-88
2021/12/07 04:43:10;;;;;;;;;4.50;3.00;;;;;4.37;100.00;101038.97;4901839;29;45275;-87
2021/12/07 04:59:15;;;;;;;;;4.00;2.50;;;;;4.20;100.00;101036.06;4906144;29;45399;-85
2021/12/07 05:01:41;;;;;;;;;3.25;3.25;;;;;4.19;100.00;101037.00;4906328;29;45209;-85
2021/12/07 05:04:15;;;;;;;;;4.50;3.50;;;;;4.14;100.00;101034.53;4905064;29;44919;-85
2021/12/07 05:06:46;;;;;;;;;2.50;2.25;;;;;4.12;100.00;101039.84;4907422;29;44734;-85
2021/12/07 05:12:57;;;;;;;;;2.00;2.00;;;;;4.12;100.00;101036.38;4888859;29;44920;-85
2021/12/07 05:14:59;;;;;;;;;5.75;2.75;;;;;4.13;100.00;101035.44;4873477;29;45328;-85
2021/12/07 05:34:42;;;;;;;;;3.00;3.00;;;;;3.98;100.00;101049.13;4832512;29;44746;-85
2021/12/07 05:40:00;;;;;;;;;3.75;3.75;;;;;3.93;100.00;101044.03;4815719;29;45354;-85
2021/12/07 05:42:26;;;;;;;;;9.00;6.50;;;;;3.92;100.00;101047.59;4815794;29;44809;-86
2021/12/07 05:44:53;;;;;;;;;8.75;5.25;;;;;3.88;100.00;101047.75;4815321;29;45129;-84
2021/12/07 05:47:19;;;;;;;;;8.50;5.25;;;;;3.92;100.00;101055.47;4813622;29;45468;-84
2021/12/07 05:49:45;;;;;;;;;5.25;5.25;;;;;3.88;100.00;101051.22;4798210;29;44818;-86
2021/12/07 05:52:10;;;;;;;;;10.00;7.00;;;;;3.91;100.00;101047.59;4793593;29;44786;-85
2021/12/07 05:54:36;;;;;;;;;5.75;5.75;;;;;3.90;100.00;101049.38;4792061;29;44846;-86
2021/12/07 05:57:01;;;;;;;;;8.50;6.50;;;;;3.84;100.00;101047.84;4792160;29;47166;-85
2021/12/07 05:59:27;;;;;;;;;9.75;8.00;;;;;3.85;100.00;101060.06;4792117;29;45517;-85
2021/12/07 06:01:52;;;;;;;;;12.00;8.75;;;;;3.83;100.00;101059.25;4795056;29;45927;-85
2021/12/07 06:04:18;;;;;;;;;7.25;7.00;;;;;3.84;100.00;101065.38;4809244;29;45362;-85
2021/12/07 06:06:43;;;;;;;;;12.00;9.50;;;;;3.83;100.00;101061.03;4861634;29;45460;-85
2021/12/07 06:09:09;;;;;;;;;8.75;7.25;;;;;3.82;100.00;101065.44;4867274;29;44939;-85
2021/12/07 06:11:34;;;;;;;;;13.00;10.50;;;;;3.78;100.00;101069.06;4866384;29;44805;-86
2021/12/07 06:13:59;;;;;;;;;9.67;9.67;;;;;3.81;100.00;101061.06;4866847;29;45384;-85
2021/12/07 06:16:29;;;;;;;;;10.25;9.50;;;;;3.79;100.00;101054.16;4880813;29;45539;-85
2021/12/07 06:18:55;;;;;;;;;14.00;9.25;;;;;3.76;100.00;101051.63;4908690;29;44762;-85
2021/12/07 06:21:20;;;;;;;;;13.00;11.25;;;;;3.77;100.00;101043.72;4907072;29;45346;-85
2021/12/07 06:23:46;;;;;;;;;13.00;10.00;;;;;3.76;100.00;101035.84;4907407;29;44691;-86
2021/12/07 06:26:11;;;;;;;;;15.00;8.75;;;;;3.74;100.00;101019.31;4905917;29;45435;-87
2021/12/07 06:28:36;;;;;;;;;14.50;13.00;;;;;3.75;100.00;101023.63;4905247;29;44669;-86
2021/12/07 06:31:02;;;;;;;;;10.00;8.50;;;;;3.72;100.00;101019.31;4908890;29;44838;-87
2021/12/07 06:33:28;;;;;;;;;13.25;9.00;;;;;3.69;100.00;101005.47;4910064;29;44900;-83
2021/12/07 06:35:57;;;;;;;;;12.00;9.67;;;;;3.67;100.00;101008.13;4908442;29;45283;-86
2021/12/07 06:38:31;;;;;;;;;14.67;10.00;;;;;3.69;100.00;101010.72;4915985;29;44824;-89
2021/12/07 06:40:58;;;;;;;;;11.00;9.25;;;;;3.65;100.00;101001.22;4901880;29;44729;-89
2021/12/07 06:43:24;;;;;;;;;15.33;9.67;;;;;3.65;100.00;100996.81;4917497;29;44925;-89
2021/12/07 06:45:50;;;;;;;;;10.00;10.00;;;;;3.63;100.00;101001.28;4895330;29;45712;-89
2021/12/07 06:48:16;;;;;;;;;14.25;12.00;;;;;3.57;100.00;100997.06;4889714;29;44806;-90
2021/12/07 06:50:42;;;;;;;;;12.25;10.00;;;;;3.59;100.00;100992.63;4889665;29;44847;-88
2021/12/07 06:53:07;;;;;;;;;26.00;16.00;;;;;3.54;100.00;100991.09;4904416;29;44853;-87
2021/12/07 06:55:34;;;;;;;;;18.00;15.67;;;;;3.52;100.00;100990.25;4887293;29;45410;-89
2021/12/07 06:57:59;;;;;;;;;19.67;15.67;;;;;3.49;100.00;100985.13;4903907;29;44715;-87
2021/12/07 07:00:26;;;;;;;;;18.00;13.00;;;;;3.53;100.00;100991.97;4901671;29;44698;-88
2021/12/07 07:02:51;;;;;;;;;24.33;19.00;;;;;3.53;100.00;100982.34;4904404;28;44744;-88
2021/12/07 07:05:17;;;;;;;;;27.00;21.33;;;;;3.56;100.00;100979.59;4906429;29;45187;-89
2021/12/07 07:07:45;;;;;;;;;28.67;21.00;;;;;3.61;100.00;100979.44;4889829;29;45221;-90
2021/12/07 07:10:13;;;;;;;;;30.33;23.67;;;;;3.69;100.00;100980.03;4909425;29;44803;-89
2021/12/07 07:12:39;;;;;;;;;28.33;25.00;;;;;3.67;100.00;100966.09;4891357;29;44898;-88
2021/12/07 07:15:06;;;;;;;;;28.00;23.33;;;;;3.77;100.00;100957.00;4907112;29;45298;-90
2021/12/07 07:17:31;;;;;;;;;30.00;25.00;;;;;3.80;100.00;100953.38;4909058;29;44662;-89
2021/12/07 07:19:57;;;;;;;;;35.00;23.00;;;;;3.89;100.00;100957.47;4890745;29;44801;-90
2021/12/07 07:22:22;;;;;;;;;23.33;23.33;;;;;3.92;100.00;100960.84;4907095;29;44884;-90
2021/12/07 07:24:48;;;;;;;;;24.33;19.33;;;;;3.93;100.00;100957.31;4907549;29;45353;-88
2021/12/07 07:27:14;;;;;;;;;25.67;24.00;;;;;3.97;100.00;100950.19;4907148;29;44821;-88
2021/12/07 07:29:44;;;;;;;;;24.67;23.00;;;;;4.03;100.00;100950.78;4919036;29;44761;-88
2021/12/07 07:32:10;;;;;;;;;33.00;20.33;;;;;4.08;100.00;100945.38;4919500;28;44890;-90
2021/12/07 07:34:36;;;;;;;;;23.33;18.33;;;;;4.12;100.00;100929.44;4911375;29;45506;-89
2021/12/07 07:37:01;;;;;;;;;27.00;23.33;;;;;4.21;100.00;100935.28;4905529;29;44600;-89
2021/12/07 07:39:28;;;;;;;;;26.00;22.00;;;;;4.20;100.00;100917.75;4906786;29;44777;-89
2021/12/07 07:41:53;;;;;;;;;22.00;18.00;;;;;4.20;100.00;100915.13;4904763;29;44903;-88
2021/12/07 07:44:19;;;;;;;;;29.33;19.00;;;;;4.19;100.00;100908.16;4903515;29;45310;-88
2021/12/07 07:46:44;;;;;;;;;30.33;25.67;;;;;4.24;100.00;100914.09;4905241;29;44828;-90
2021/12/07 07:49:10;;;;;;;;;31.33;24.00;;;;;4.27;100.00;100900.84;4895972;29;44725;-89
2021/12/07 07:51:35;;;;;;;;;26.00;23.67;;;;;4.25;100.00;100893.00;4916761;29;44867;-89
2021/12/07 07:54:28;;;;;;;;;28.00;22.00;;;;;4.37;100.00;100899.56;4894135;29;45237;-90
2021/12/07 07:56:54;;;;;;;;;26.67;23.67;;;;;4.32;100.00;100893.63;4906582;29;44790;-88
2021/12/07 07:59:19;;;;;;;;;34.00;24.33;;;;;4.32;100.00;100897.13;4904543;29;44734;-87
2021/12/07 08:01:45;;;;;;;;;30.33;29.00;;;;;4.31;100.00;100890.16;4885827;29;44866;-89
2021/12/07 08:04:10;;;;;;;;;25.67;25.00;;;;;4.29;100.00;100891.97;4909387;28;45249;-90
2021/12/07 08:06:35;;;;;;;;;36.33;28.00;;;;;4.31;100.00;100891.94;4910141;29;44758;-87
2021/12/07 08:09:02;;;;;;;;;33.33;26.67;;;;;4.30;100.00;100880.56;4912513;29;44786;-86
2021/12/07 08:11:27;;;;;;;;;33.33;28.33;;;;;4.34;100.00;100876.00;4911715;29;44986;-88
2021/12/07 08:13:54;;;;;;;;;26.00;22.33;;;;;4.32;100.00;100857.69;4888217;29;45535;-87
2021/12/07 08:16:19;;;;;;;;;35.00;29.33;;;;;4.46;100.00;100864.19;4887935;29;44742;-86
2021/12/07 08:18:47;;;;;;;;;37.33;30.67;;;;;4.43;100.00;100862.50;4895526;29;44833;-88
2021/12/07 08:21:14;;;;;;;;;31.33;20.67;;;;;4.44;100.00;100855.47;4906154;29;44901;-89
2021/12/07 08:23:40;;;;;;;;;31.33;25.00;;;;;4.48;100.00;100862.31;4895549;29;45111;-89
2021/12/07 08:26:08;;;;;;;;;26.33;22.67;;;;;4.54;100.00;100854.19;4881972;29;44724;-89
2021/12/07 08:28:34;;;;;;;;;28.33;20.67;;;;;4.53;100.00;100847.22;4885066;29;44690;-88
2021/12/07 08:31:00;;;;;;;;;23.33;20.33;;;;;4.50;100.00;100840.31;4904567;29;44781;-89
2021/12/07 08:33:26;;;;;;;;;21.67;17.67;;;;;4.45;100.00;100838.75;4900778;29;45233;-88
2021/12/07 08:35:52;;;;;;;;;24.67;21.33;;;;;4.46;100.00;100837.88;4902634;29;44746;-90
2021/12/07 08:38:18;;;;;;;;;28.33;22.67;;;;;4.47;100.00;100837.81;4902934;29;44771;-89
2021/12/07 08:40:44;;;;;;;;;19.75;16.25;;;;;4.52;100.00;100846.34;4902233;29;44873;-89
2021/12/07 08:43:12;;;;;;;;;22.67;17.33;;;;;4.53;100.00;100837.53;4901809;29;45089;-88
2021/12/07 08:45:39;;;;;;;;;22.67;21.67;;;;;4.50;100.00;100827.16;4891143;29;44838;-88
2021/12/07 08:48:05;;;;;;;;;24.67;16.00;;;;;4.56;100.00;100834.81;4881540;29;44764;-88
2021/12/07 08:50:32;;;;;;;;;24.00;19.00;;;;;4.61;100.00;100830.22;4866091;29;44907;-88
2021/12/07 08:53:03;;;;;;;;;28.33;18.67;;;;;4.65;100.00;100825.69;4884416;29;46770;-87
2021/12/07 09:01:01;;;;;;;;;13.75;11.25;;;;;4.63;100.00;100814.34;4907784;29;44661;-90
2021/12/07 09:03:26;;;;;;;;;17.75;14.75;;;;;4.62;100.00;100795.06;4905330;28;45113;-87
2021/12/07 09:05:53;;;;;;;;;20.50;15.75;;;;;4.60;100.00;100781.16;4885493;29;45410;-88
2021/12/07 09:08:19;;;;;;;;;22.33;18.67;;;;;4.62;100.00;100786.34;4901902;29;44730;-87
2021/12/07 09:10:45;;;;;;;;;21.33;18.33;;;;;4.60;100.00;100761.88;4868164;29;44916;-88
2021/12/07 09:13:11;;;;;;;;;20.00;16.00;;;;;4.63;100.00;100756.47;4889817;29;45634;-88
2021/12/07 09:15:37;;;;;;;;;26.75;19.25;;;;;4.64;100.00;100758.16;4899799;29;45379;-88
2021/12/07 09:18:03;;;;;;;;;21.00;17.00;;;;;4.66;100.00;100756.34;4882127;29;44734;-88
2021/12/07 09:20:30;;;;;;;;;19.00;16.75;;;;;4.63;100.00;100740.69;4904952;29;44854;-88
2021/12/07 09:22:58;;;;;;;;;19.67;18.00;;;;;4.69;100.00;100750.09;4900899;29;46880;-87
2021/12/07 09:25:24;;;;;;;;;21.33;18.67;;;;;4.69;100.00;100750.09;4902192;29;44848;-89
2021/12/07 09:27:50;;;;;;;;;19.00;18.67;;;;;4.69;100.00;100737.81;4902617;29;44816;-88
2021/12/07 09:30:18;;;;;;;;;36.67;28.00;;;;;4.66;100.00;100718.66;4886192;29;44764;-86
2021/12/07 09:32:45;;;;;;;;;27.33;22.00;;;;;4.72;100.00;100716.59;4886344;29;45337;-87
2021/12/07 09:35:12;;;;;;;;;28.67;22.00;;;;;4.74;100.00;100717.41;4908144;29;44604;-89
2021/12/07 09:37:38;;;;;;;;;25.67;22.67;;;;;4.73;100.00;100702.53;4892789;29;44824;-88
2021/12/07 09:40:07;;;;;;;;;26.00;21.33;;;;;4.73;100.00;100714.84;4896853;29;44941;-87
2021/12/07 09:42:32;;;;;;;;;15.75;11.50;;;;;4.74;100.00;100719.16;4889312;29;45569;-87
2021/12/07 09:44:58;;;;;;;;;20.00;17.00;;;;;4.70;100.00;100718.47;4885554;29;44739;-89
2021/12/07 09:47:24;;;;;;;;;12.25;12.25;;;;;4.76;100.00;100714.72;4884001;29;44841;-88
2021/12/07 09:49:51;;;;;;;;;18.25;15.00;;;;;4.73;100.00;100702.53;4883447;29;44941;-87
2021/12/07 09:52:16;;;;;;;;;14.25;14.25;;;;;4.75;100.00;100721.75;4897580;29;45476;-87
2021/12/07 09:55:06;;;;;;;;;25.00;22.00;;;;;4.78;100.00;100705.81;4888617;29;44659;-90
2021/12/07 09:57:32;;;;;;;;;12.50;10.50;;;;;4.76;100.00;100688.41;4908762;29;44780;-89
2021/12/07 09:59:58;;;;;;;;;16.75;16.00;;;;;4.85;100.00;100693.25;4907260;29;44846;-90
2021/12/07 10:02:24;;;;;;;;;17.00;15.50;;;;;4.88;100.00;100696.63;4908572;29;45427;-89
2021/12/07 10:04:49;;;;;;;;;12.50;12.50;;;;;4.92;100.00;100701.72;4899191;29;44751;-91
2021/12/07 10:07:16;;;;;;;;;19.00;14.00;;;;;4.98;100.00;100701.44;4884946;29;45496;-88
2021/12/07 10:09:42;;;;;;;;;22.25;14.75;;;;;5.02;100.00;100713.56;4885562;29;44778;-87
2021/12/07 10:12:08;;;;;;;;;17.50;16.25;;;;;5.05;100.00;100703.75;4884384;29;45000;-87
2021/12/07 10:14:41;;;;;;;;;19.33;16.67;;;;;5.10;100.00;100698.28;4899828;29;44921;-88
2021/12/07 10:17:08;;;;;;;;;16.00;14.75;;;;;5.18;100.00;100692.69;4909686;29;44761;-89
2021/12/07 10:22:34;;;;;;;;;20.25;16.75;;;;;5.26;100.00;100653.66;4916128;29;45149;-91
2021/12/07 10:25:00;;;;;;;;;14.75;14.75;;;;;5.28;100.00;100650.06;4892180;29;44844;-92
2021/12/07 10:27:31;;;;;;;;;15.00;13.25;;;;;5.37;100.00;100640.88;4892593;29;45151;-90
2021/12/07 10:29:57;;;;;;;;;20.25;15.00;;;;;5.41;100.00;100635.38;4911952;29;44933;-91
2021/12/07 10:32:22;;;;;;;;;13.25;12.50;;;;;5.43;100.00;100618.66;4896094;29;45195;-91
2021/12/07 10:34:48;;;;;;;;;14.75;14.75;;;;;5.43;100.00;100610.75;4896079;29;44721;-90
2021/12/07 10:37:16;;;;;;;;;24.00;16.50;;;;;5.44;100.00;100613.28;4895897;29;44745;-90
2021/12/07 10:39:51;;;;;;;;;16.50;11.50;;;;;5.54;100.00;100600.53;4912862;29;44763;-90
2021/12/07 10:42:29;;;;;;;;;17.75;14.25;;;;;5.59;100.00;100588.84;4900282;29;45370;-90
2021/12/07 10:44:58;;;;;;;;;17.25;15.25;;;;;5.61;100.00;100572.97;4895425;29;44690;-89
2021/12/07 10:47:24;;;;;;;;;19.75;18.50;;;;;5.61;100.00;100570.34;4914730;29;44730;-90
2021/12/07 10:49:56;;;;;;;;;29.50;21.00;;;;;5.67;100.00;100577.94;4897804;29;45021;-92
2021/12/07 10:52:33;;;;;;;;;24.50;18.25;;;;;5.70;100.00;100559.31;4915210;29;45037;-89
2021/12/07 10:55:07;;;;;;;;;27.00;17.00;;;;;5.78;100.00;100562.44;4922913;29;44802;-90
2021/12/07 10:57:44;;;;;;;;;24.00;19.25;;;;;5.77;100.00;100533.53;4909460;28;44818;-90
2021/12/07 11:00:09;;;;;;;;;24.25;16.50;;;;;5.91;100.00;100526.66;4912700;28;44955;-90
2021/12/07 11:02:38;;;;;;;;;18.50;17.50;;;;;5.98;100.00;100515.78;4912428;28;46704;-90
2021/12/07 11:05:09;;;;;;;;;21.00;19.00;;;;;6.04;100.00;100500.50;4890823;29;44687;-90
2021/12/07 11:07:35;;;;;;;;;23.50;17.00;;;;;6.16;100.00;100496.38;4916861;29;44758;-90
2021/12/07 11:10:21;;;;;;;;;19.25;14.75;;;;;6.23;100.00;100487.19;4912973;29;44926;-91
2021/12/07 11:13:00;;;;;;;;;17.00;14.25;;;;;6.25;100.00;100466.88;4881042;29;45311;-91
2021/12/07 11:15:28;;;;;;;;;13.50;13.50;;;;;6.37;100.00;100462.72;4892494;29;45029;-91
2021/12/07 11:18:05;;;;;;;;;15.50;14.00;;;;;6.42;100.00;100445.69;4860335;29;44741;-90
2021/12/07 11:20:32;;;;;;;;;14.75;11.25;;;;;6.46;100.00;100432.34;4858837;29;44833;-91
2021/12/07 11:23:08;;;;;;;;;13.75;12.75;;;;;6.51;100.00;100411.84;4853021;29;46740;-89
2021/12/07 11:31:18;;;;;;;;;15.75;11.00;;;;;6.66;100.00;100380.16;4879411;29;44752;-90
2021/12/07 11:33:45;;;;;;;;;10.75;10.25;;;;;6.62;100.00;100352.25;4864199;29;45527;-89
2021/12/07 11:36:32;;;;;;;;;9.25;9.00;;;;;6.73;100.00;100372.75;4879428;29;44700;-91
2021/12/07 11:38:59;;;;;;;;;10.00;6.75;;;;;6.73;100.00;100346.38;4881785;29;44677;-90
2021/12/07 11:41:31;;;;;;;;;8.50;6.50;;;;;6.84;100.00;100351.03;4857194;29;45285;-91
2021/12/07 11:44:09;;;;;;;;;11.50;7.50;;;;;6.91;100.00;100333.88;4888767;29;45157;-90
2021/12/07 11:46:37;;;;;;;;;12.00;11.00;;;;;6.88;100.00;100320.88;4890026;29;44630;-91
2021/12/07 11:49:17;;;;;;;;;11.75;9.00;;;;;6.91;100.00;100318.91;4891244;29;44709;-90
2021/12/07 11:51:46;;;;;;;;;12.00;9.75;;;;;6.93;100.00;100306.44;4878420;29;44942;-92
2021/12/07 11:54:13;;;;;;;;;11.25;7.00;;;;;6.98;100.00;100290.34;4876221;29;45113;-91
2021/12/07 11:56:40;;;;;;;;;9.25;7.25;;;;;7.04;100.00;100299.69;4858502;29;44700;-89
2021/12/07 11:59:09;;;;;;;;;15.00;11.00;;;;;7.01;100.00;100276.09;4890031;29;44648;-92
2021/12/07 12:01:36;;;;;;;;;5.00;5.00;;;;;7.03;100.00;100261.03;4860687;29;45239;-92
2021/12/07 12:04:03;;;;;;;;;13.25;8.25;;;;;7.15;100.00;100261.09;4896181;29;45227;-91
2021/12/07 12:06:31;;;;;;;;;11.00;7.00;;;;;7.11;100.00;100237.66;4879275;29;44757;-90
2021/12/07 12:08:58;;;;;;;;;7.00;7.00;;;;;7.10;100.00;100230.63;4894891;29;44704;-90
2021/12/07 12:11:54;;;;;;;;;9.75;5.75;;;;;7.19;100.00;100232.72;4880212;29;45049;-91
2021/12/07 12:18:20;;;;;;;;;9.00;7.00;;;;;7.22;100.00;100220.19;4891888;29;44601;-91
2021/12/07 12:20:59;;;;;;;;;9.25;7.25;;;;;7.26;100.00;100205.00;4879553;29;44857;-91
2021/12/07 12:24:05;;;;;;;;;7.00;6.00;;;;;7.24;100.00;100200.75;4897802;29;44632;-92
2021/12/07 12:26:34;;;;;;;;;11.50;8.75;;;;;7.25;100.00;100181.31;4898843;29;45410;-91
2021/12/07 12:29:00;;;;;;;;;5.75;4.75;;;;;7.28;100.00;100166.13;4890317;29;44746;-90
2021/12/07 12:31:45;;;;;;;;;9.25;7.00;;;;;7.32;100.00;100169.41;4873273;29;44719;-90
2021/12/07 12:34:31;;;;;;;;;4.00;4.00;;;;;7.33;100.00;100163.19;4873778;29;44839;-90
2021/12/07 12:37:16;;;;;;;;;8.50;5.75;;;;;7.33;100.00;100145.53;4889949;29;45229;-88
2021/12/07 12:40:00;;;;;;;;;8.00;6.80;;;;;7.40;100.00;100127.53;4868514;29;44682;-89
2021/12/07 12:42:36;;;;;;;;;5.40;5.20;;;;;7.44;100.00;100121.91;4884349;29;44730;-89
2021/12/07 12:45:21;;;;;;;;;5.00;5.00;;;;;7.45;100.00;100107.78;4884494;29;44702;-90
2021/12/07 12:48:01;;;;;;;;;5.75;5.50;;;;;7.38;100.00;100090.59;4885881;29;45312;-90
2021/12/07 12:50:30;;;;;;;;;6.40;5.00;;;;;7.40;100.00;100085.25;4888845;29;44714;-88
2021/12/07 12:53:03;;;;;;;;;8.60;7.00;;;;;7.36;100.00;100057.31;4873773;29;45438;-89
2021/12/07 12:55:46;;;;;;;;;7.25;7.25;;;;;7.39;100.00;100038.59;4857202;29;44921;-90
2021/12/07 12:58:33;;;;;;;;;5.25;5.25;;;;;7.42;100.00;100041.06;4893204;29;45230;-91
2021/12/07 13:01:08;;;;;;;;;8.00;5.40;;;;;7.45;100.00;100043.50;4876893;29;44771;-89
2021/12/07 13:03:45;;;;;;;;;5.60;3.80;;;;;7.45;100.00;100031.16;4896456;29;44778;-90
2021/12/07 13:06:16;;;;;;;;;4.75;4.75;;;;;7.48;100.00;100025.63;4884990;29;44825;-89
2021/12/07 13:08:52;;;;;;;;;5.75;4.25;;;;;7.43;100.00;100027.75;4884463;29;45463;-89
2021/12/07 13:11:33;;;;;;;;;8.60;7.40;;;;;7.44;100.00;100040.00;4883488;29;44765;-88
2021/12/07 13:17:58;;;;;;;;;7.00;5.00;;;;;7.47;100.00;100017.81;4893577;29;44736;-88
2021/12/07 13:20:31;;;;;;;;;2.00;2.00;;;;;7.40;100.00;99998.03;4884200;29;45520;-89
2021/12/07 13:23:05;;;;;;;;;9.40;5.00;;;;;7.47;100.00;100008.09;4885904;29;44746;-90
2021/12/07 13:25:37;;;;;;;;;7.60;4.80;;;;;7.48;100.00;99996.56;4889440;29;45228;-90